createdAt,value
2018-09-25T00:00:07.271Z,99.90
2018-09-25T00:05:15.742Z,99.90
2018-09-25T00:10:24.364Z,99.90
2018-09-25T00:15:33.343Z,99.90
2018-09-25T00:28:19.355Z,99.90
2018-09-25T00:33:27.890Z,99.90
2018-09-25T00:38:36.579Z,99.90
2018-09-25T00:43:45.073Z,99.90
2018-09-25T00:48:53.705Z,99.90
2018-09-25T00:54:02.187Z,99.90
2018-09-25T00:59:18.512Z,99.90
2018-09-25T01:04:33.668Z,99.90
2018-09-25T01:09:47.432Z,99.90
2018-09-25T01:14:57.593Z,99.90
2018-09-25T01:20:06.059Z,99.90
2018-09-25T01:25:14.697Z,99.90
2018-09-25T01:30:23.328Z,99.90
2018-09-25T01:35:31.713Z,99.90
2018-09-25T01:40:40.330Z,99.90
2018-09-25T01:45:48.705Z,99.90
2018-09-25T01:50:57.339Z,99.90
2018-09-25T01:56:13.729Z,99.90
2018-09-25T02:01:22.232Z,99.90
2018-09-25T02:06:30.672Z,99.90
2018-09-25T02:11:39.158Z,99.90
2018-09-25T02:16:47.698Z,99.90
2018-09-25T02:21:56.175Z,99.90
2018-09-25T02:27:04.543Z,99.90
2018-09-25T02:32:13.193Z,99.90
2018-09-25T02:37:21.884Z,99.90
2018-09-25T02:42:30.521Z,99.90
2018-09-25T02:47:39.140Z,99.90
2018-09-25T02:52:47.867Z,99.90
2018-09-25T02:57:57.064Z,99.90
2018-09-25T03:03:05.640Z,99.90
2018-09-25T03:08:14.372Z,99.90
2018-09-25T03:13:23.031Z,99.90
2018-09-25T03:18:31.499Z,99.90
2018-09-25T03:23:40.709Z,99.90
2018-09-25T03:28:49.313Z,99.90
2018-09-25T03:34:04.400Z,99.90
2018-09-25T03:39:18.965Z,99.90
2018-09-25T03:44:27.297Z,99.90
2018-09-25T03:49:36.069Z,99.90
2018-09-25T03:54:44.500Z,99.90
2018-09-25T03:59:52.994Z,99.90
2018-09-25T04:05:05.300Z,99.90
2018-09-25T04:10:16.914Z,99.90
2018-09-25T04:15:25.575Z,99.90
2018-09-25T04:20:41.820Z,99.90
2018-09-25T04:25:50.351Z,99.90
2018-09-25T04:30:58.793Z,99.90
2018-09-25T04:41:45.493Z,99.90
2018-09-25T04:57:56.240Z,99.90
2018-09-25T05:03:04.924Z,99.90
2018-09-25T05:08:13.444Z,99.90
2018-09-25T05:13:22.024Z,99.90
2018-09-25T05:18:30.496Z,99.90
2018-09-25T05:23:38.959Z,99.90
2018-09-25T05:28:47.575Z,99.90
2018-09-25T05:34:20.309Z,99.90
2018-09-25T05:39:28.915Z,99.90
2018-09-25T05:44:38.584Z,99.90
2018-09-25T05:49:47.235Z,99.90
2018-09-25T05:54:55.810Z,99.90
2018-09-25T06:00:04.250Z,99.90
2018-09-25T06:05:12.768Z,99.90
2018-09-25T06:10:21.224Z,99.90
2018-09-25T06:15:30.421Z,99.90
2018-09-25T07:16:45.775Z,99.90
2018-09-25T07:38:52.184Z,99.90
2018-09-25T08:00:40.548Z,99.90
2018-09-25T08:05:49.049Z,99.90
2018-09-25T08:10:57.657Z,99.90
2018-09-25T08:16:13.197Z,99.90
2018-09-25T08:49:29.398Z,99.90
2018-09-25T08:54:39.540Z,99.90
2018-09-25T09:10:54.115Z,98.40
2018-09-25T09:27:37.569Z,96.30
2018-09-25T09:32:46.139Z,96.60
2018-09-25T09:37:57.013Z,95.30
2018-09-25T09:43:09.288Z,95.10
2018-09-25T09:48:17.855Z,93.10
2018-09-25T09:53:26.479Z,92.70
2018-09-25T09:58:35.224Z,92.40
2018-09-25T10:03:43.954Z,94.30
2018-09-25T10:08:53.817Z,91.20
2018-09-25T10:14:02.437Z,89.60
2018-09-25T10:19:11.103Z,91.10
2018-09-25T10:24:19.648Z,89.80
2018-09-25T10:29:28.129Z,88.80
2018-09-25T10:34:36.721Z,88.90
2018-09-25T10:39:45.350Z,89.40
2018-09-25T10:44:53.984Z,86.50
2018-09-25T10:50:02.848Z,80.80
2018-09-25T10:55:11.372Z,82.90
2018-09-25T11:00:19.928Z,76.30
2018-09-25T11:05:28.275Z,77.30
2018-09-25T11:10:36.860Z,79.70
2018-09-25T11:15:45.389Z,82.00
2018-09-25T11:20:53.939Z,72.70
2018-09-25T11:26:02.389Z,76.60
2018-09-25T11:31:10.877Z,72.30
2018-09-25T11:36:19.354Z,73.00
2018-09-25T11:41:27.983Z,71.20
2018-09-25T11:46:36.335Z,67.90
2018-09-25T11:51:44.648Z,77.40
2018-09-25T11:56:53.076Z,71.30
2018-09-25T12:02:01.542Z,58.90
2018-09-25T12:07:10.158Z,64.00
2018-09-25T12:12:18.688Z,62.50
2018-09-25T12:17:27.199Z,61.10
2018-09-25T12:22:35.667Z,60.30
2018-09-25T12:27:44.154Z,62.70
2018-09-25T12:32:52.705Z,64.70
2018-09-25T12:38:01.170Z,59.70
2018-09-25T12:43:09.719Z,57.90
2018-09-25T12:48:18.164Z,57.90
2018-09-25T12:53:26.676Z,60.20
2018-09-25T12:58:35.173Z,62.00
2018-09-25T13:03:43.708Z,62.20
2018-09-25T13:08:52.267Z,65.80
2018-09-25T13:14:00.772Z,64.60
2018-09-25T13:19:09.320Z,59.80
2018-09-25T13:24:17.880Z,59.50
2018-09-25T13:29:26.249Z,60.40
2018-09-25T13:34:34.761Z,63.50
2018-09-25T13:39:43.340Z,60.40
2018-09-25T13:44:51.878Z,62.90
2018-09-25T13:50:00.306Z,56.80
2018-09-25T13:55:08.819Z,57.90
2018-09-25T14:00:17.333Z,60.30
2018-09-25T14:05:26.044Z,57.00
2018-09-25T14:10:34.719Z,57.70
2018-09-25T14:15:43.329Z,60.40
2018-09-25T14:20:51.740Z,56.10
2018-09-25T14:26:00.253Z,59.00
2018-09-25T14:31:08.848Z,60.80
2018-09-25T14:36:17.343Z,57.10
2018-09-25T14:41:25.872Z,58.50
2018-09-25T14:46:34.335Z,59.10
2018-09-25T14:51:42.840Z,61.20
2018-09-25T14:56:51.348Z,57.40
2018-09-25T15:01:59.923Z,57.80
2018-09-25T15:07:08.398Z,55.50
2018-09-25T15:12:16.979Z,53.90
2018-09-25T15:17:25.522Z,54.60
2018-09-25T15:22:41.020Z,56.50
2018-09-25T15:27:49.552Z,58.40
2018-09-25T15:32:58.064Z,59.10
2018-09-25T15:38:06.707Z,58.20
2018-09-25T15:43:15.260Z,58.50
2018-09-25T15:48:23.815Z,58.10
2018-09-25T15:53:32.308Z,59.80
2018-09-25T15:58:41.685Z,58.20
2018-09-25T16:03:50.227Z,59.90
2018-09-25T16:08:58.856Z,57.30
2018-09-25T16:14:07.331Z,57.40
2018-09-25T16:19:15.894Z,58.60
2018-09-25T16:24:24.605Z,61.70
2018-09-25T16:29:33.127Z,63.00
2018-09-25T16:34:41.616Z,65.60
2018-09-25T16:39:50.098Z,68.30
2018-09-25T16:44:58.670Z,68.60
2018-09-25T16:50:07.162Z,69.40
2018-09-25T16:55:15.646Z,70.10
2018-09-25T17:00:24.174Z,70.70
2018-09-25T17:05:32.813Z,71.30
2018-09-25T17:10:41.345Z,70.80
2018-09-25T17:15:49.971Z,71.80
2018-09-25T17:20:58.516Z,71.60
2018-09-25T17:26:07.001Z,72.40
2018-09-25T17:31:16.543Z,73.40
2018-09-25T17:36:24.912Z,74.10
2018-09-25T17:41:33.405Z,75.30
2018-09-25T17:46:42.064Z,75.80
2018-09-25T17:51:50.732Z,77.20
2018-09-25T17:56:59.701Z,78.30
2018-09-25T18:02:09.075Z,79.30
2018-09-25T18:07:18.053Z,80.40
2018-09-25T18:12:26.743Z,79.60
2018-09-25T18:17:35.341Z,79.40
2018-09-25T18:22:43.923Z,81.20
2018-09-25T18:27:52.530Z,82.90
2018-09-25T18:33:01.095Z,83.20
2018-09-25T18:38:09.816Z,84.50
2018-09-25T18:43:18.787Z,85.40
2018-09-25T18:48:27.940Z,86.00
2018-09-25T18:53:36.677Z,86.50
2018-09-25T18:58:45.265Z,87.00
2018-09-25T19:03:53.740Z,87.30
2018-09-25T19:09:02.220Z,87.80
2018-09-25T19:14:10.726Z,87.00
2018-09-25T19:19:19.402Z,87.20
2018-09-25T19:24:27.887Z,88.80
2018-09-25T19:29:36.337Z,90.00
2018-09-25T19:34:44.762Z,90.40
2018-09-25T19:39:53.144Z,89.70
2018-09-25T19:45:01.782Z,89.20
2018-09-25T19:50:10.461Z,89.90
2018-09-25T19:55:19.268Z,90.80
2018-09-25T20:00:28.442Z,91.10
2018-09-25T20:05:37.588Z,91.30
2018-09-25T20:10:46.136Z,91.10
2018-09-25T20:15:54.714Z,90.90
2018-09-25T20:21:03.196Z,91.30
2018-09-25T20:26:11.921Z,90.80
2018-09-25T20:31:20.674Z,90.70
2018-09-25T20:36:29.139Z,90.90
2018-09-25T20:41:38.687Z,90.80
2018-09-25T20:46:47.229Z,90.80
2018-09-25T20:51:55.719Z,90.70
2018-09-25T20:57:04.243Z,91.30
2018-09-25T21:02:12.732Z,91.60
2018-09-25T21:07:21.186Z,91.80
2018-09-25T21:12:29.934Z,91.70
2018-09-25T21:17:38.368Z,91.60
2018-09-25T21:22:46.827Z,91.50
2018-09-25T21:27:55.312Z,91.20
2018-09-25T21:33:03.775Z,91.90
2018-09-25T21:38:12.417Z,92.20
2018-09-25T21:43:20.970Z,91.80
2018-09-25T21:48:29.727Z,92.10
2018-09-25T21:53:38.253Z,92.10
2018-09-25T21:58:46.896Z,91.90
2018-09-25T22:03:55.496Z,92.10
2018-09-25T22:09:04.032Z,92.90
2018-09-25T22:14:12.393Z,92.80
2018-09-25T22:19:21.072Z,92.80
2018-09-25T22:24:29.664Z,92.70
2018-09-25T22:29:38.159Z,93.50
2018-09-25T22:34:46.645Z,93.10
2018-09-25T22:39:55.125Z,92.40
2018-09-25T22:45:03.843Z,93.00
2018-09-25T22:50:12.542Z,93.50
2018-09-25T22:55:20.990Z,93.60
2018-09-25T23:00:29.483Z,93.30
2018-09-25T23:05:38.179Z,93.30
2018-09-25T23:10:46.804Z,93.60
2018-09-25T23:15:55.283Z,93.30
2018-09-25T23:21:03.845Z,93.20
2018-09-25T23:26:12.383Z,93.20
2018-09-25T23:31:20.936Z,93.30
2018-09-25T23:36:29.466Z,93.20
2018-09-25T23:41:42.732Z,93.40
2018-09-25T23:47:09.569Z,93.50
2018-09-25T23:52:19.205Z,93.80
2018-09-25T23:58:28.344Z,93.40
